Time;durP1;ratioP1;P1;durP2;ratioP2;P2;SDS_P1;SDS_P2;PMS_P1;PMS_P2;Temp;Humidity;BMP_temperature;BMP_pressure;BME280_temperature;BME280_humidity;BME280_pressure;Samples;Min_cycle;Max_cycle;Signal;HPM_P1;HPM_P2
2023/08/01 00:07:52;;;;;;;5.73;4.47;;;;;;;18.77;100.00;96946.72;18437092;32;20088;-58
2023/08/01 00:17:55;;;;;;;4.22;2.70;;;;;;;18.79;100.00;96930.75;18436479;32;20065;-58
2023/08/01 00:27:57;;;;;;;4.07;2.80;;;;;;;18.82;100.00;96910.91;18421763;32;20076;-59
2023/08/01 00:38:00;;;;;;;4.37;2.93;;;;;;;18.87;100.00;96887.94;18435233;32;20064;-58
2023/08/01 00:48:03;;;;;;;2.70;2.20;;;;;;;18.92;100.00;96890.50;18434438;32;20351;-58
2023/08/01 00:58:06;;;;;;;6.37;2.27;;;;;;;19.01;100.00;96898.56;18419988;32;20086;-58
2023/08/01 01:08:09;;;;;;;2.90;1.90;;;;;;;19.20;100.00;96879.59;18433470;32;20087;-58
2023/08/01 01:18:11;;;;;;;4.00;2.25;;;;;;;19.38;100.00;96879.34;18426168;32;20069;-58
2023/08/01 01:28:15;;;;;;;3.97;2.47;;;;;;;19.59;100.00;96876.41;18418674;32;20098;-58
2023/08/01 01:38:19;;;;;;;4.45;2.75;;;;;;;19.72;100.00;96867.00;18418347;32;20052;-58
2023/08/01 01:48:22;;;;;;;4.87;2.00;;;;;;;19.72;100.00;96853.28;18416829;32;20065;-58
2023/08/01 01:58:25;;;;;;;3.30;2.20;;;;;;;19.74;100.00;96859.19;18432776;32;20596;-58
2023/08/01 02:08:27;;;;;;;3.57;2.00;;;;;;;19.70;100.00;96858.28;18452320;32;20137;-58
2023/08/01 02:18:30;;;;;;;3.17;2.05;;;;;;;19.65;100.00;96869.50;18425355;32;20053;-58
2023/08/01 02:28:33;;;;;;;2.60;1.80;;;;;;;19.58;100.00;96869.31;18451659;32;20101;-58
2023/08/01 02:38:36;;;;;;;6.40;2.00;;;;;;;19.52;100.00;96874.25;18451433;32;20053;-58
2023/08/01 02:48:39;;;;;;;3.23;2.10;;;;;;;19.60;100.00;96873.31;18450817;32;20053;-58
2023/08/01 02:58:42;;;;;;;2.67;1.60;;;;;;;19.62;100.00;96878.44;18450904;32;20373;-58
2023/08/01 03:08:44;;;;;;;4.47;2.20;;;;;;;19.66;100.00;96878.56;18430112;32;20045;-58
2023/08/01 03:18:47;;;;;;;3.70;2.17;;;;;;;19.60;100.00;96886.25;18425629;32;20110;-58
2023/08/01 03:28:49;;;;;;;5.00;2.20;;;;;;;19.55;100.00;96887.25;18439442;32;20081;-58
2023/08/01 03:38:52;;;;;;;5.77;2.20;;;;;;;19.50;100.00;96884.78;18424655;32;20057;-58
2023/08/01 03:48:55;;;;;;;3.83;1.93;;;;;;;19.44;100.00;96883.41;18438335;32;20135;-58
2023/08/01 03:58:57;;;;;;;3.58;2.00;;;;;;;19.36;100.00;96895.31;18431760;32;20141;-58
2023/08/01 04:09:01;;;;;;;3.77;2.00;;;;;;;19.19;100.00;96878.00;18422907;32;20061;-58
2023/08/01 04:19:04;;;;;;;4.90;2.15;;;;;;;18.93;100.00;96860.00;18436358;32;20191;-58
2023/08/01 04:29:06;;;;;;;6.63;2.00;;;;;;;18.79;100.00;96860.34;18435553;32;20080;-58
2023/08/01 04:39:09;;;;;;;3.97;2.37;;;;;;;18.69;100.00;96832.63;18435201;32;20069;-58
2023/08/01 04:49:12;;;;;;;3.87;2.00;;;;;;;18.64;100.00;96847.34;18434409;32;20102;-58
2023/08/01 04:59:14;;;;;;;4.05;2.10;;;;;;;18.59;100.00;96856.59;18433769;32;20057;-58
2023/08/01 05:09:17;;;;;;;3.35;2.30;;;;;;;18.51;100.00;96860.22;18433462;32;20104;-59
2023/08/01 05:19:19;;;;;;;4.03;2.20;;;;;;;18.34;100.00;96849.53;18419321;32;20413;-58
2023/08/01 05:29:22;;;;;;;4.10;2.20;;;;;;;18.11;100.00;96825.31;18432575;32;20118;-59
2023/08/01 05:39:25;;;;;;;5.65;2.80;;;;;;;17.88;100.00;96820.25;18417741;32;20370;-58
2023/08/01 05:49:29;;;;;;;5.77;2.77;;;;;;;17.64;100.00;96806.50;18431163;32;20410;-59
2023/08/01 05:59:32;;;;;;;8.60;3.30;;;;;;;17.41;100.00;96785.81;18431519;32;20062;-59
2023/08/01 06:09:35;;;;;;;6.10;3.10;;;;;;;17.19;100.00;96718.69;18430967;32;20366;-58
2023/08/01 06:19:38;;;;;;;11.32;3.55;;;;;;;16.92;100.00;96726.34;18403801;32;20070;-58
2023/08/01 06:29:41;;;;;;;4.63;2.73;;;;;;;16.85;100.00;96730.72;18417160;32;20093;-58
2023/08/01 06:39:44;;;;;;;5.80;2.63;;;;;;;16.99;100.00;96733.19;18430061;32;20113;-58
2023/08/01 06:49:47;;;;;;;4.95;2.83;;;;;;;17.16;100.00;96754.09;18422090;32;20053;-58
2023/08/01 06:59:49;;;;;;;3.58;2.45;;;;;;;17.20;100.00;96788.59;18441463;32;20090;-58
2023/08/01 07:09:52;;;;;;;3.97;2.47;;;;;;;17.31;100.00;96799.09;18440791;32;20053;-58
2023/08/01 07:19:54;;;;;;;2.65;2.17;;;;;;;17.49;100.00;96800.53;18426205;32;20057;-58
2023/08/01 07:29:57;;;;;;;3.22;2.28;;;;;;;17.52;100.00;96783.47;18439590;32;20351;-58
2023/08/01 07:40:01;;;;;;;3.23;2.27;;;;;;;17.52;100.00;96772.53;18432668;32;20069;-58
2023/08/01 07:50:05;;;;;;;3.00;2.05;;;;;;;17.51;100.00;96792.00;18424340;32;20152;-58
2023/08/01 08:00:09;;;;;;;2.10;1.50;;;;;;;17.58;100.00;96793.06;18436971;32;20110;-58
2023/08/01 08:10:14;;;;;;;3.08;1.87;;;;;;;17.51;100.00;96781.84;18437154;32;20109;-59
2023/08/01 08:20:17;;;;;;;3.28;1.55;;;;;;;17.44;100.00;96826.16;18436285;32;20404;-59
2023/08/01 08:30:20;;;;;;;3.93;1.23;;;;;;;17.31;100.00;96810.84;18435473;32;20053;-59
2023/08/01 08:40:24;;;;;;;3.03;0.90;;;;;;;17.55;100.00;96820.25;18434961;32;20125;-59
2023/08/01 08:50:29;;;;;;;3.53;1.08;;;;;;;17.92;100.00;96823.13;18419978;32;20077;-59
2023/08/01 09:00:32;;;;;;;3.35;0.98;;;;;;;18.31;100.00;96836.50;18433963;32;20513;-59
2023/08/01 09:10:36;;;;;;;1.37;1.02;;;;;;;18.80;100.00;96817.31;18405461;32;20072;-59
2023/08/01 09:20:43;;;;;;;2.23;1.20;;;;;;;19.06;100.00;96810.66;18432803;32;20072;-59
2023/08/01 09:30:54;;;;;;;3.08;1.60;;;;;;;19.07;100.00;96804.06;18426242;32;20097;-59
2023/08/01 09:40:58;;;;;;;1.65;1.12;;;;;;;19.21;100.00;96842.84;18417883;32;20076;-59
2023/08/01 09:51:12;;;;;;;1.87;1.20;;;;;;;19.53;100.00;96828.44;18431047;32;20074;-59
2023/08/01 10:01:17;;;;;;;2.22;0.95;;;;;;;19.60;100.00;96843.16;18417485;32;20061;-59
2023/08/01 10:11:23;;;;;;;1.00;0.50;;;;;;;19.60;100.00;96815.72;18430908;32;20065;-59
2023/08/01 10:21:27;;;;;;;3.37;1.05;;;;;;;19.47;100.00;96816.91;18427319;32;20100;-59
2023/08/01 10:31:31;;;;;;;1.83;0.95;;;;;;;19.39;100.00;96774.81;18443109;32;20057;-58
2023/08/01 10:41:36;;;;;;;3.67;0.80;;;;;;;19.18;100.00;96793.41;18428962;32;20399;-59
2023/08/01 10:51:40;;;;;;;2.75;0.82;;;;;;;19.35;100.00;96820.53;18376262;32;20046;-59
2023/08/01 11:01:57;;;;;;;1.90;0.60;;;;;;;19.45;100.00;96849.38;18377369;32;20066;-59
2023/08/01 11:12:00;;;;;;;1.27;0.68;;;;;;;19.62;100.00;96856.50;18375529;32;20057;-60
2023/08/01 11:22:10;;;;;;;1.15;0.60;;;;;;;19.94;100.00;96851.13;18374862;32;20066;-59
2023/08/01 11:32:13;;;;;;;0.75;0.52;;;;;;;20.95;100.00;96865.41;18374738;32;20062;-60
2023/08/01 11:42:17;;;;;;;1.15;0.80;;;;;;;21.44;100.00;96864.06;18375112;32;20355;-59
2023/08/01 11:52:27;;;;;;;0.70;0.57;;;;;;;21.67;100.00;96853.16;18373054;32;20077;-59
2023/08/01 12:02:30;;;;;;;1.58;0.50;;;;;;;22.14;100.00;96839.47;18373737;32;20053;-59
2023/08/01 12:12:44;;;;;;;1.45;0.52;;;;;;;22.38;100.00;96859.56;18364668;32;20095;-60
2023/08/01 12:22:47;;;;;;;0.90;0.30;;;;;;;22.12;100.00;96852.81;18372540;32;20080;-59
2023/08/01 12:32:51;;;;;;;2.00;0.60;;;;;;;21.72;100.00;96859.53;18371904;32;20057;-59
2023/08/01 12:42:54;;;;;;;0.55;0.40;;;;;;;21.44;100.00;96874.28;18371544;32;20099;-59
2023/08/01 12:52:58;;;;;;;0.77;0.50;;;;;;;21.76;100.00;96898.91;18431432;32;20108;-59
2023/08/01 13:03:02;;;;;;;0.93;0.60;;;;;;;23.01;100.00;96878.28;18434214;32;20080;-59
2023/08/01 13:13:06;;;;;;;0.55;0.37;;;;;;;23.28;100.00;96916.94;18433299;32;20373;-59
2023/08/01 13:23:10;;;;;;;1.00;0.62;;;;;;;22.66;100.00;96933.66;18433002;32;20096;-58
2023/08/01 13:33:13;;;;;;;;;;;;;;;22.40;100.00;96945.37;18432724;32;20061;-58
2023/08/01 13:43:16;;;;;;;1.47;0.67;;;;;;;22.02;100.00;96949.75;18432451;32;19961;-58
2023/08/01 13:53:20;;;;;;;1.67;0.60;;;;;;;22.37;100.00;96935.91;18417271;32;20061;-58
2023/08/01 14:03:24;;;;;;;2.00;0.75;;;;;;;23.18;100.00;96951.44;18430966;32;20478;-58
2023/08/01 14:13:26;;;;;;;;;;;;;;;22.55;100.00;96941.72;18404205;32;20100;-58
2023/08/01 14:23:29;;;;;;;1.25;0.65;;;;;;;22.32;100.00;96936.97;18430942;32;20300;-58
2023/08/01 14:33:33;;;;;;;1.50;0.60;;;;;;;22.77;100.00;96934.59;18430247;32;20133;-58
2023/08/01 14:43:36;;;;;;;;;;;;;;;22.98;100.00;96930.59;18415888;32;20097;-57
2023/08/01 14:53:38;;;;;;;0.50;0.40;;;;;;;22.34;100.00;96939.41;18423381;32;19949;-58
2023/08/01 15:03:41;;;;;;;;;;;;;;;21.83;100.00;96943.91;18415589;32;20057;-58
2023/08/01 15:13:45;;;;;;;0.47;0.20;;;;;;;22.84;100.00;96945.78;18412967;32;19951;-58
2023/08/01 15:23:48;;;;;;;1.10;0.57;;;;;;;22.85;100.00;96950.09;18440125;32;20415;-58
2023/08/01 15:33:51;;;;;;;;;;;;;;;22.59;100.00;96945.34;18413649;32;20076;-58
2023/08/01 15:43:54;;;;;;;0.90;0.52;;;;;;;22.32;100.00;96936.97;18424699;32;19965;-57
2023/08/01 15:53:57;;;;;;;1.77;0.80;;;;;;;22.53;100.00;96940.50;18438085;32;20138;-58
2023/08/01 16:04:01;;;;;;;1.37;0.70;;;;;;;22.43;100.00;96956.50;18437748;32;20049;-58
2023/08/01 16:14:04;;;;;;;1.75;0.82;;;;;;;22.25;100.00;96969.88;18437007;32;20069;-58
2023/08/01 16:24:08;;;;;;;3.62;0.90;;;;;;;22.00;100.00;96975.69;18436154;32;20095;-58
2023/08/01 16:34:11;;;;;;;1.17;0.77;;;;;;;21.75;100.00;97004.63;18436199;32;20058;-58
2023/08/01 16:44:14;;;;;;;1.67;0.80;;;;;;;21.66;100.00;97000.13;18434981;32;20058;-58
2023/08/01 16:54:17;;;;;;;1.37;0.80;;;;;;;21.71;100.00;97015.56;18435216;32;20141;-58
2023/08/01 17:04:21;;;;;;;1.70;0.80;;;;;;;21.68;100.00;97021.81;18434155;32;20112;-58
2023/08/01 17:14:25;;;;;;;1.87;0.73;;;;;;;21.06;99.03;97027.78;18419600;32;20076;-58
2023/08/01 17:24:28;;;;;;;2.80;1.10;;;;;;;20.59;100.00;97023.81;18433145;32;20175;-58
2023/08/01 17:34:32;;;;;;;2.20;0.90;;;;;;;20.34;100.00;97025.06;18431775;32;20049;-58
2023/08/01 17:44:37;;;;;;;2.67;0.77;;;;;;;20.23;100.00;97039.31;18417877;32;20088;-58
2023/08/01 17:54:42;;;;;;;1.02;0.70;;;;;;;20.32;100.00;97044.66;18431941;32;20075;-58
2023/08/01 18:04:45;;;;;;;1.58;0.90;;;;;;;20.28;100.00;97063.78;18431233;32;20057;-58
2023/08/01 18:14:48;;;;;;;;;;;;;;;19.94;100.00;97065.94;18417296;32;20061;-58
2023/08/01 18:24:52;;;;;;;1.95;0.80;;;;;;;19.41;100.00;97070.53;18430908;32;19978;-58
2023/08/01 18:34:58;;;;;;;;;;;;;;;18.92;100.00;97066.59;18430188;32;20061;-58
2023/08/01 18:45:01;;;;;;;2.35;1.10;;;;;;;18.47;100.00;97061.88;18422945;32;19957;-58
2023/08/01 18:55:08;;;;;;;1.52;0.98;;;;;;;18.06;100.00;97063.50;18442158;32;20057;-58
2023/08/01 19:05:11;;;;;;;1.58;0.80;;;;;;;17.77;100.00;97084.28;18441529;32;20072;-58
2023/08/01 19:15:15;;;;;;;2.12;1.20;;;;;;;17.51;100.00;97104.37;18426929;32;20076;-58
2023/08/01 19:25:18;;;;;;;3.03;0.90;;;;;;;17.33;100.00;97100.13;18433793;32;20061;-58
2023/08/01 19:35:21;;;;;;;1.58;1.00;;;;;;;17.08;100.00;97108.88;18425306;32;20065;-58
2023/08/01 19:45:25;;;;;;;1.40;0.73;;;;;;;16.86;100.00;97125.47;18438839;32;20098;-58
2023/08/01 19:55:28;;;;;;;3.72;1.35;;;;;;;16.63;100.00;97130.31;18423826;32;20070;-57
2023/08/01 20:05:32;;;;;;;6.40;3.05;;;;;;;16.43;100.00;97138.84;18437823;32;20069;-58
2023/08/01 20:15:38;;;;;;;;;;;;;;;16.17;100.00;97141.56;18420256;32;20041;-58
2023/08/01 20:25:42;;;;;;;4.50;1.75;;;;;;;15.93;100.00;97131.09;18434377;32;20065;-58
2023/08/01 20:35:56;;;;;;;4.30;2.80;;;;;;;15.70;100.00;97139.34;18436012;32;20101;-58
2023/08/01 20:45:59;;;;;;;5.20;3.60;;;;;;;15.50;100.00;97148.09;18421047;32;20057;-57
2023/08/01 20:56:12;;;;;;;10.27;3.10;;;;;;;15.36;100.00;97161.81;18420697;32;20099;-58
2023/08/01 21:06:16;;;;;;;2.58;2.30;;;;;;;15.29;100.00;97156.03;18434104;32;20554;-58
2023/08/01 21:16:22;;;;;;;3.47;2.30;;;;;;;15.20;100.00;97158.72;18433119;32;20096;-58
2023/08/01 21:26:25;;;;;;;3.15;2.10;;;;;;;15.14;100.00;97141.69;18432915;32;20072;-58
2023/08/01 21:36:28;;;;;;;3.37;1.85;;;;;;;15.06;100.00;97158.78;18418230;32;20070;-58
2023/08/01 21:46:33;;;;;;;2.72;2.17;;;;;;;14.97;100.00;97142.41;18431577;32;20087;-58
2023/08/01 21:56:37;;;;;;;4.10;2.30;;;;;;;14.87;100.00;97140.75;18431674;32;20061;-58
2023/08/01 22:06:42;;;;;;;3.20;1.90;;;;;;;14.79;100.00;97127.09;18427324;32;20475;-57
2023/08/01 22:16:51;;;;;;;3.15;1.70;;;;;;;14.70;100.00;97127.03;18431280;32;20069;-58
2023/08/01 22:26:55;;;;;;;1.92;1.42;;;;;;;14.59;100.00;97118.28;18430092;32;20099;-58
2023/08/01 22:37:00;;;;;;;2.60;1.77;;;;;;;14.49;100.00;97115.81;18443214;32;20117;-58
2023/08/01 22:47:04;;;;;;;3.07;2.13;;;;;;;14.39;100.00;97114.16;18442218;32;20069;-58
2023/08/01 22:57:12;;;;;;;2.47;1.65;;;;;;;14.34;100.00;97100.69;18442025;32;20472;-58
2023/08/01 23:07:16;;;;;;;6.07;2.10;;;;;;;14.26;100.00;97093.25;18427794;32;20144;-58
2023/08/01 23:17:20;;;;;;;3.45;2.65;;;;;;;14.22;100.00;97087.63;18440586;32;20339;-58
2023/08/01 23:27:22;;;;;;;6.32;2.30;;;;;;;14.18;100.00;97087.44;18412154;32;20084;-58
2023/08/01 23:37:25;;;;;;;2.67;1.65;;;;;;;14.19;100.00;97075.44;18425730;32;20426;-58
2023/08/01 23:47:28;;;;;;;4.07;1.83;;;;;;;14.20;100.00;97066.19;18438780;32;20442;-58
2023/08/01 23:57:30;;;;;;;3.08;1.60;;;;;;;14.21;100.00;97045.22;18417948;32;20061;-58
